Burns Pinion Ridge Reserve, California Weather observations

Data are for 10 minute period ending at time listed.
 Day   Time   Solar   Ave.   Ave.  Ave.  Vector  Max.   Baro.   Total    
  of    of     Rad.   Air    Rel.  Wind   Wind   Wind  Press.  Precip.   
Year   Day            Temp.  Hum.  Speed  Dir.   Gust                    
2015   (PST)  Kw/m2    F      %     mph   deg.    mph    mb.     in.     
-------------------------------------------------------------------------
  62   11:10   0.59   47.9    51    3.3    99     7.3   872.0    0.01 
  62   11:20   0.38   45.4    56    4.3    84    11.5   872.0    0.00 
  62   11:30   0.79   47.1    54    4.1    66    10.4   872.0    0.00 
  62   11:40   0.85   48.8    52    5.7    31    11.9   871.9    0.00 
  62   11:50   0.84   48.5    51    4.6    46    10.8   871.8    0.00 
  62   12:00   0.84   48.9    50    4.7    47    10.0   871.7    0.00 
  62   12:10   0.86   48.4    49    5.3    61    11.8   871.6    0.00 
  62   12:20   0.85   49.3    47    4.5    44    11.0   871.5    0.00 
  62   12:30   0.86   49.4    46    5.2    55    11.7   871.3    0.00 
  62   12:40   0.84   50.6    44    3.3    65     8.0   871.2    0.00 
  62   12:50   0.87   50.3    43    4.1    77    10.1   871.0    0.00 
  62   13:00   0.44   49.6    44    3.9    60    10.9   870.9    0.00 
  62   13:10   0.57   48.1    44    4.0    43     8.2   870.8    0.00 
  62   13:20   0.75   50.1    43    3.5    32     8.7   870.7    0.00 
  62   13:30   0.73   50.2    44    5.5    83    12.1   870.6    0.00 
  62   13:40   0.38   49.5    43    3.3    87     8.8   870.5    0.00 
  62   13:50   0.30   48.2    44    3.5    39     8.5   870.5    0.00 
  62   14:00   0.39   49.5    45    3.5    15     8.4   870.4    0.00 
  62   14:10   0.29   49.1    43    4.6    28    10.2   870.5    0.00 
  62   14:20   0.26   48.0    46    4.0    66     8.5   870.5    0.00 
  62   14:30   0.29   48.4    45    4.1    31     9.7   870.5    0.00 
  62   14:40   0.23   48.1    44    3.9    64    11.2   870.4    0.00 
  62   14:50   0.27   48.3    43    4.7    51    10.5   870.4    0.00 
  62   15:00   0.17   48.6    42    1.8    71     5.0   870.4    0.00 
  62   15:10   0.34   49.0    42    2.6    62     5.2   870.3    0.00 
  62   15:20   0.46   50.7    40    2.4   311     6.3   870.2    0.00 
  62   15:30   0.43   50.7    38    3.7   275     6.8   870.2    0.00 
  62   15:40   0.42   50.6    38    3.5   220     6.3   870.1    0.00 
  62   15:50   0.40   52.1    36    2.1   228     5.1   870.1    0.00 
  62   16:00   0.37   53.2    34    1.0   259     3.7   870.0    0.00 
  62   16:10   0.34   53.5    34    2.1    31     6.9   870.0    0.00 
  62   16:20   0.14   50.9    38    3.0    67     6.2   869.9    0.00 
  62   16:30   0.06   47.7    42    2.3    11     4.8   870.0    0.00 
  62   16:40   0.07   47.4    41    1.3   101     3.9   870.0    0.00 
  62   16:50   0.15   49.6    39    0.4   123     2.3   870.0    0.00 
  62   17:00   0.13   50.8    39    1.9   106     4.5   870.1    0.00 
  62   17:10   0.09   50.7    38    2.2    67     4.4   870.2    0.00 
  62   17:20   0.04   48.8    40    1.8    54     3.2   870.3    0.00 
  62   17:30   0.01   47.0    44    0.6    83     3.4   870.4    0.00 
  62   17:40   0.01   45.8    60    2.7   208     5.3   870.5    0.00 
  62   17:50   0.00   45.0    64    2.7   191     5.0   870.6    0.00 
  62   18:00   0.00   44.7    66    1.6   180     3.4   870.7    0.00 
  62   18:10   0.00   44.5    67    1.7   178     3.4   870.7    0.00 
  62   18:20   0.00   44.2    67    3.2   176     5.2   870.8    0.00 
  62   18:30   0.00   43.9    66    2.6   199     4.5   870.9    0.00 
  62   18:40   0.00   43.6    67    2.1   206     3.3   871.1    0.00 
  62   18:50   0.00   43.8    67    2.9   204     4.4   871.2    0.00 
  62   19:00   0.00   43.7    67    2.4   199     3.6   871.3    0.00 
  62   19:10   0.00   43.1    67    2.5   210     3.8   871.3    0.00 
  62   19:20   0.00   42.3    70    1.5   225     2.0   871.3    0.00 
  62   19:30   0.00   41.6    74    0.9   233     2.0   871.4    0.00 
  62   19:40   0.00   41.0    78    0.6   249     2.3   871.6    0.00 
  62   19:50   0.00   40.8    77    1.0   259     2.6   871.7    0.00 
  62   20:00   0.00   40.5    78    0.9   311     1.6   871.8    0.00 
  62   20:10   0.00   40.5    78    1.7   312     3.4   872.0    0.00 
  62   20:20   0.00   40.9    76    0.7   332     1.3   872.0    0.00 
  62   20:30   0.00   40.4    76    0.0     0     0.0   872.0    0.00 
  62   20:40   0.00   40.3    76    0.1   342     1.2   872.1    0.00 
  62   20:50   0.00   40.4    74    0.0     0     0.0   872.2    0.00 
  62   21:00   0.00   40.7    74    0.2   329     1.3   872.3    0.00 
  62   21:10   0.00   41.0    72    0.1   347     0.9   872.4    0.00 
  62   21:20   0.00   40.5    74    0.2    25     1.1   872.5    0.00 
  62   21:30   0.00   39.7    77    0.0     0     0.0   872.6    0.00 
  62   21:40   0.00   39.2    79    0.2   281     1.2   872.7    0.00 
  62   21:50   0.00   39.6    75    0.5   335     2.0   872.7    0.00 
  62   22:00   0.00   40.3    71    1.1   319     2.9   872.8    0.00 
  62   22:10   0.00   40.1    68    1.6   333     3.8   872.8    0.00 
  62   22:20   0.00   40.1    65    3.7   345     6.4   872.8    0.00 
  62   22:30   0.00   40.4    62    4.7   345     6.8   872.8    0.00 
  62   22:40   0.00   40.8    60    5.7   343     9.9   872.8    0.00 
  62   22:50   0.00   41.2    58    5.7   346     9.5   872.9    0.00 
  62   23:00   0.00   41.2    57    7.3   346    12.6   872.9    0.00 
  62   23:10   0.00   41.6    56    6.7   351    11.0   872.9    0.00 
  62   23:20   0.00   40.9    57    4.7   355     7.4   873.0    0.00 
  62   23:30   0.00   40.3    59    4.4   349     7.7   873.0    0.00 
  62   23:40   0.00   39.8    61    5.6   340     9.1   873.0    0.00 
  62   23:50   0.00   40.4    60    6.6   337     9.3   873.0    0.00 
  63    0:00   0.00   40.5    60    5.9   336     9.4   873.0    0.00 
  63    0:10   0.00   40.3    61    6.5   336    10.4   873.1    0.00 
  63    0:20   0.00   39.5    64    6.2   320     8.7   873.1    0.00 
  63    0:30   0.00   39.3    64    7.2   321     9.1   873.1    0.00 
  63    0:40   0.00   39.2    64    7.2   320    10.2   873.1    0.00 
  63    0:50   0.00   39.0    65    7.0   324     9.3   873.3    0.00 
  63    1:00   0.00   38.9    66    6.8   334    10.7   873.3    0.00 
  63    1:10   0.00   39.8    65    8.3   333    11.5   873.4    0.00 
  63    1:20   0.00   40.0    65    7.9   334    11.7   873.4    0.00 
  63    1:30   0.00   39.9    66   10.4   340    14.7   873.4    0.00 
  63    1:40   0.00   40.1    66   11.2   341    15.8   873.5    0.00 
  63    1:50   0.00   40.4    65   10.7   342    17.2   873.5    0.00 
  63    2:00   0.00   40.9    63   11.5   347    17.6   873.5    0.00 
  63    2:10   0.00   40.9    63   11.6   352    18.7   873.5    0.00 
  63    2:20   0.00   40.9    63   12.7   348    19.1   873.6    0.00 
  63    2:30   0.00   40.5    63   13.5   342    19.6   873.6    0.00 
  63    2:40   0.00   40.1    62   12.8   342    18.1   873.6    0.00 
  63    2:50   0.00   39.8    61   12.7   343    20.2   873.6    0.00 
  63    3:00   0.00   39.5    61   13.6   341    20.0   873.6    0.00 
  63    3:10   0.00   39.4    61   13.7   342    20.8   873.7    0.00 
  63    3:20   0.00   39.3    59   16.0   339    23.3   873.7    0.00 
  63    3:30   0.00   39.3    58   16.3   342    22.6   873.7    0.00 
  63    3:40   0.00   38.7    60   12.5   346    19.7   873.8    0.00 
  63    3:50   0.00   38.6    58   15.4   353    23.1   873.7    0.00 
  63    4:00   0.00   38.8    57   15.6   347    22.4   873.8    0.00 
  63    4:10   0.00   38.6    57   14.9   349    23.8   873.8    0.00 
  63    4:20   0.00   38.4    57   13.4   346    24.5   874.0    0.00 
  63    4:30   0.00   38.0    58   13.7   344    19.9   874.1    0.00 
  63    4:40   0.00   37.9    57   14.0   351    22.9   874.1    0.00 
  63    4:50   0.00   38.0    56   15.8   349    22.0   874.1    0.00 
  63    5:00   0.00   37.9    54   14.9   349    21.5   874.3    0.00 
  63    5:10   0.00   37.5    54   12.7   350    19.1   874.4    0.00 
  63    5:20   0.00   37.3    54   12.2   351    20.3   874.5    0.00 
  63    5:30   0.00   37.4    54   13.0   348    18.0   874.6    0.00 
  63    5:40   0.00   37.0    54   14.3   344    20.6   874.7    0.00 
  63    5:50   0.00   36.9    55   14.8   341    19.9   874.8    0.00 
  63    6:00   0.00   36.7    55   14.7   343    20.9   874.9    0.00 
  63    6:10   0.00   36.7    51   14.2   343    21.1   875.0    0.00 
  63    6:20   0.01   36.5    48   11.9   348    17.6   875.2    0.00 
  63    6:30   0.01   36.3    47   12.5   353    19.5   875.2    0.00 
  63    6:40   0.02   36.7    45   13.1   353    19.6   875.4    0.00 
  63    6:50   0.03   36.6    46   10.9   346    17.5   875.6    0.00 
  63    7:00   0.04   36.7    45   12.5   345    17.8   875.7    0.00 
  63    7:10   0.14   37.9    42   14.4   348    24.0   875.8    0.00 
  63    7:20   0.18   39.4    40   14.4   355    22.2   875.9    0.00 
  63    7:30   0.22   40.1    40   12.5   348    20.9   876.2    0.00 
  63    7:40   0.26   41.0    35   15.8   358    22.1   876.3    0.00 
  63    7:50   0.30   41.8    34   16.1   357    22.9   876.4    0.00 
  63    8:00   0.34   42.3    34   17.0     0    23.4   876.5    0.00 
  63    8:10   0.37   42.6    35   16.9     4    24.2   876.6    0.00 
  63    8:20   0.41   43.3    36   15.8     2    24.4   876.6    0.00 
  63    8:30   0.44   43.6    34   17.5   358    27.2   876.7    0.00 
  63    8:40   0.48   44.2    34   15.9     0    22.3   876.8    0.00 
  63    8:50   0.51   44.9    32   16.3   360    23.7   877.0    0.00 
  63    9:00   0.55   45.0    31   14.5   354    22.6   877.2    0.00 
  63    9:10   0.58   45.3    30   17.3   358    24.6   877.3    0.00 
  63    9:20   0.61   45.4    29   18.3     0    27.7   877.3    0.00 
  63    9:30   0.64   45.4    28   19.4     3    26.4   877.3    0.00 
  63    9:40   0.66   45.2    27   18.5   354    25.8   877.5    0.00 
  63    9:50   0.69   45.6    29   16.2   358    24.1   877.6    0.00 
  63   10:00   0.71   45.6    28   19.1     1    26.9   877.6    0.00 
  63   10:10   0.73   45.9    28   20.1     2    27.8   877.5    0.00 
  63   10:20   0.76   46.4    27   18.8   358    26.6   877.4    0.00 
  63   10:30   0.77   46.6    26   18.5   360    24.5   877.5    0.00 
  63   10:40   0.79   46.9    25   18.1   358    26.3   877.6    0.00 
  63   10:50   0.81   47.3    24   16.7   349    27.0   877.6    0.00 
  63   11:00   0.82   47.2    23   18.8     1    27.1   877.7    0.00 

Return to Burns Pinion Ridge Reserve graphs page.


Western Regional Climate Center,wrcc@dri.edu